sensor_id;sensor_type;location;lat;lon;timestamp;P1;durP1;ratioP1;P2;durP2;ratioP2
65471;SDS011;52068;50.710;14.492;2023-10-08T00:00:25;4.65;;;1.70;;
65471;SDS011;52068;50.710;14.492;2023-10-08T00:05:36;2.80;;;1.60;;
65471;SDS011;52068;50.710;14.492;2023-10-08T00:08:02;3.28;;;1.58;;
65471;SDS011;52068;50.710;14.492;2023-10-08T00:10:33;1.88;;;1.33;;
65471;SDS011;52068;50.710;14.492;2023-10-08T00:13:00;4.35;;;1.65;;
65471;SDS011;52068;50.710;14.492;2023-10-08T00:15:25;3.58;;;1.70;;
65471;SDS011;52068;50.710;14.492;2023-10-08T00:17:51;7.53;;;2.08;;
65471;SDS011;52068;50.710;14.492;2023-10-08T00:20:19;3.17;;;1.65;;
65471;SDS011;52068;50.710;14.492;2023-10-08T00:22:50;2.08;;;1.35;;
65471;SDS011;52068;50.710;14.492;2023-10-08T00:25:19;6.15;;;1.65;;
65471;SDS011;52068;50.710;14.492;2023-10-08T00:27:45;2.50;;;1.65;;
65471;SDS011;52068;50.710;14.492;2023-10-08T00:30:12;4.57;;;1.83;;
65471;SDS011;52068;50.710;14.492;2023-10-08T00:32:43;2.75;;;1.90;;
65471;SDS011;52068;50.710;14.492;2023-10-08T00:35:09;3.15;;;1.90;;
65471;SDS011;52068;50.710;14.492;2023-10-08T00:37:39;4.07;;;1.70;;
65471;SDS011;52068;50.710;14.492;2023-10-08T00:40:05;3.67;;;1.80;;
65471;SDS011;52068;50.710;14.492;2023-10-08T00:42:40;1.98;;;1.40;;
65471;SDS011;52068;50.710;14.492;2023-10-08T00:45:10;1.73;;;1.20;;
65471;SDS011;52068;50.710;14.492;2023-10-08T00:47:39;3.03;;;1.38;;
65471;SDS011;52068;50.710;14.492;2023-10-08T00:50:09;2.28;;;1.42;;
65471;SDS011;52068;50.710;14.492;2023-10-08T00:52:38;1.60;;;1.25;;
65471;SDS011;52068;50.710;14.492;2023-10-08T00:55:26;4.68;;;1.50;;
65471;SDS011;52068;50.710;14.492;2023-10-08T00:57:57;3.47;;;1.52;;
65471;SDS011;52068;50.710;14.492;2023-10-08T01:00:27;1.90;;;1.58;;
65471;SDS011;52068;50.710;14.492;2023-10-08T01:03:02;3.67;;;1.48;;
65471;SDS011;52068;50.710;14.492;2023-10-08T01:05:39;2.47;;;1.55;;
65471;SDS011;52068;50.710;14.492;2023-10-08T01:08:11;2.50;;;1.40;;
65471;SDS011;52068;50.710;14.492;2023-10-08T01:10:43;3.00;;;1.50;;
65471;SDS011;52068;50.710;14.492;2023-10-08T01:13:09;1.92;;;1.40;;
65471;SDS011;52068;50.710;14.492;2023-10-08T01:15:55;1.63;;;1.25;;
65471;SDS011;52068;50.710;14.492;2023-10-08T01:18:23;1.77;;;1.30;;
65471;SDS011;52068;50.710;14.492;2023-10-08T01:21:00;3.70;;;1.63;;
65471;SDS011;52068;50.710;14.492;2023-10-08T01:23:33;2.83;;;1.60;;
65471;SDS011;52068;50.710;14.492;2023-10-08T01:25:59;2.13;;;1.35;;
65471;SDS011;52068;50.710;14.492;2023-10-08T01:28:36;2.90;;;1.50;;
65471;SDS011;52068;50.710;14.492;2023-10-08T01:31:02;2.90;;;1.50;;
65471;SDS011;52068;50.710;14.492;2023-10-08T01:33:29;2.35;;;1.50;;
65471;SDS011;52068;50.710;14.492;2023-10-08T01:35:57;3.70;;;1.40;;
65471;SDS011;52068;50.710;14.492;2023-10-08T01:38:30;2.40;;;1.55;;
65471;SDS011;52068;50.710;14.492;2023-10-08T01:40:57;2.78;;;1.05;;
65471;SDS011;52068;50.710;14.492;2023-10-08T01:43:28;3.13;;;1.58;;
65471;SDS011;52068;50.710;14.492;2023-10-08T01:45:54;3.03;;;1.60;;
65471;SDS011;52068;50.710;14.492;2023-10-08T01:48:20;1.80;;;1.30;;
65471;SDS011;52068;50.710;14.492;2023-10-08T01:50:56;2.38;;;1.70;;
65471;SDS011;52068;50.710;14.492;2023-10-08T01:53:26;1.73;;;1.30;;
65471;SDS011;52068;50.710;14.492;2023-10-08T01:55:55;3.33;;;1.40;;
65471;SDS011;52068;50.710;14.492;2023-10-08T01:58:21;2.33;;;1.48;;
65471;SDS011;52068;50.710;14.492;2023-10-08T02:00:47;1.92;;;1.63;;
65471;SDS011;52068;50.710;14.492;2023-10-08T02:03:13;4.20;;;1.70;;
65471;SDS011;52068;50.710;14.492;2023-10-08T02:05:47;2.00;;;1.50;;
65471;SDS011;52068;50.710;14.492;2023-10-08T02:08:14;5.60;;;1.83;;
65471;SDS011;52068;50.710;14.492;2023-10-08T02:10:42;2.03;;;1.52;;
65471;SDS011;52068;50.710;14.492;2023-10-08T02:13:09;1.92;;;1.50;;
65471;SDS011;52068;50.710;14.492;2023-10-08T02:15:44;3.03;;;1.70;;
65471;SDS011;52068;50.710;14.492;2023-10-08T02:18:12;2.13;;;1.50;;
65471;SDS011;52068;50.710;14.492;2023-10-08T02:20:38;1.85;;;1.52;;
65471;SDS011;52068;50.710;14.492;2023-10-08T02:23:04;2.60;;;1.40;;
65471;SDS011;52068;50.710;14.492;2023-10-08T02:25:30;3.00;;;1.40;;
65471;SDS011;52068;50.710;14.492;2023-10-08T02:27:56;1.73;;;1.20;;
65471;SDS011;52068;50.710;14.492;2023-10-08T02:30:22;1.83;;;1.20;;
65471;SDS011;52068;50.710;14.492;2023-10-08T02:32:48;1.13;;;1.00;;
65471;SDS011;52068;50.710;14.492;2023-10-08T02:35:14;1.70;;;1.60;;
65471;SDS011;52068;50.710;14.492;2023-10-08T02:37:40;2.88;;;1.20;;
65471;SDS011;52068;50.710;14.492;2023-10-08T02:40:06;1.80;;;1.20;;
65471;SDS011;52068;50.710;14.492;2023-10-08T02:42:41;2.05;;;1.20;;
65471;SDS011;52068;50.710;14.492;2023-10-08T02:45:09;4.32;;;1.30;;
65471;SDS011;52068;50.710;14.492;2023-10-08T02:47:39;1.88;;;1.30;;
65471;SDS011;52068;50.710;14.492;2023-10-08T02:50:06;1.65;;;1.33;;
65471;SDS011;52068;50.710;14.492;2023-10-08T02:52:33;1.13;;;1.00;;
65471;SDS011;52068;50.710;14.492;2023-10-08T02:54:59;1.77;;;1.40;;
65471;SDS011;52068;50.710;14.492;2023-10-08T02:57:25;2.17;;;1.13;;
65471;SDS011;52068;50.710;14.492;2023-10-08T02:59:54;2.25;;;1.45;;
65471;SDS011;52068;50.710;14.492;2023-10-08T03:02:19;2.28;;;1.35;;
65471;SDS011;52068;50.710;14.492;2023-10-08T03:04:46;3.63;;;1.25;;
65471;SDS011;52068;50.710;14.492;2023-10-08T03:07:16;2.00;;;1.40;;
65471;SDS011;52068;50.710;14.492;2023-10-08T03:09:52;1.52;;;1.02;;
65471;SDS011;52068;50.710;14.492;2023-10-08T03:12:28;2.97;;;1.38;;
65471;SDS011;52068;50.710;14.492;2023-10-08T03:14:57;1.50;;;1.35;;
65471;SDS011;52068;50.710;14.492;2023-10-08T03:17:38;1.83;;;1.17;;
65471;SDS011;52068;50.710;14.492;2023-10-08T03:20:09;2.30;;;1.45;;
65471;SDS011;52068;50.710;14.492;2023-10-08T03:22:55;2.33;;;1.33;;
65471;SDS011;52068;50.710;14.492;2023-10-08T03:25:22;1.65;;;1.15;;
65471;SDS011;52068;50.710;14.492;2023-10-08T03:27:49;1.55;;;1.20;;
65471;SDS011;52068;50.710;14.492;2023-10-08T03:30:15;1.27;;;1.00;;
65471;SDS011;52068;50.710;14.492;2023-10-08T03:32:41;2.35;;;1.30;;
65471;SDS011;52068;50.710;14.492;2023-10-08T03:35:09;1.63;;;1.20;;
65471;SDS011;52068;50.710;14.492;2023-10-08T03:37:38;3.85;;;0.98;;
65471;SDS011;52068;50.710;14.492;2023-10-08T03:40:11;1.73;;;1.10;;
65471;SDS011;52068;50.710;14.492;2023-10-08T03:42:58;1.60;;;1.20;;
65471;SDS011;52068;50.710;14.492;2023-10-08T03:45:23;1.90;;;1.20;;
65471;SDS011;52068;50.710;14.492;2023-10-08T03:48:07;3.70;;;1.30;;
65471;SDS011;52068;50.710;14.492;2023-10-08T03:50:36;1.48;;;0.98;;
65471;SDS011;52068;50.710;14.492;2023-10-08T03:53:08;1.85;;;1.10;;
65471;SDS011;52068;50.710;14.492;2023-10-08T03:55:38;2.00;;;1.33;;
65471;SDS011;52068;50.710;14.492;2023-10-08T03:58:07;2.45;;;1.20;;
65471;SDS011;52068;50.710;14.492;2023-10-08T04:00:38;2.08;;;1.10;;
65471;SDS011;52068;50.710;14.492;2023-10-08T04:03:06;2.08;;;1.35;;
65471;SDS011;52068;50.710;14.492;2023-10-08T04:05:48;1.27;;;1.13;;
65471;SDS011;52068;50.710;14.492;2023-10-08T04:08:39;1.92;;;1.00;;
65471;SDS011;52068;50.710;14.492;2023-10-08T04:11:08;1.45;;;1.10;;
65471;SDS011;52068;50.710;14.492;2023-10-08T04:13:47;2.10;;;1.20;;
65471;SDS011;52068;50.710;14.492;2023-10-08T04:16:13;1.60;;;1.30;;
65471;SDS011;52068;50.710;14.492;2023-10-08T04:18:43;1.85;;;1.25;;
65471;SDS011;52068;50.710;14.492;2023-10-08T04:21:10;1.48;;;1.20;;
65471;SDS011;52068;50.710;14.492;2023-10-08T04:23:38;1.02;;;0.93;;
65471;SDS011;52068;50.710;14.492;2023-10-08T04:26:04;1.13;;;1.00;;
65471;SDS011;52068;50.710;14.492;2023-10-08T04:28:31;1.15;;;0.95;;
65471;SDS011;52068;50.710;14.492;2023-10-08T04:30:59;3.28;;;1.38;;
65471;SDS011;52068;50.710;14.492;2023-10-08T04:33:39;4.30;;;1.20;;
65471;SDS011;52068;50.710;14.492;2023-10-08T04:36:05;1.92;;;1.00;;
65471;SDS011;52068;50.710;14.492;2023-10-08T04:38:32;1.30;;;1.15;;
65471;SDS011;52068;50.710;14.492;2023-10-08T04:41:04;2.72;;;1.00;;
65471;SDS011;52068;50.710;14.492;2023-10-08T04:43:34;1.38;;;1.08;;
65471;SDS011;52068;50.710;14.492;2023-10-08T04:46:03;2.25;;;1.30;;
65471;SDS011;52068;50.710;14.492;2023-10-08T04:48:30;1.95;;;0.90;;
65471;SDS011;52068;50.710;14.492;2023-10-08T04:51:01;2.78;;;1.13;;
65471;SDS011;52068;50.710;14.492;2023-10-08T04:53:29;5.53;;;1.08;;
65471;SDS011;52068;50.710;14.492;2023-10-08T04:56:02;7.05;;;1.10;;
65471;SDS011;52068;50.710;14.492;2023-10-08T04:58:38;1.33;;;1.13;;
65471;SDS011;52068;50.710;14.492;2023-10-08T05:01:07;1.08;;;0.95;;
65471;SDS011;52068;50.710;14.492;2023-10-08T05:03:49;1.10;;;1.00;;
65471;SDS011;52068;50.710;14.492;2023-10-08T05:06:25;1.10;;;1.00;;
65471;SDS011;52068;50.710;14.492;2023-10-08T05:09:18;1.10;;;0.90;;
65471;SDS011;52068;50.710;14.492;2023-10-08T05:11:43;5.43;;;1.20;;
65471;SDS011;52068;50.710;14.492;2023-10-08T05:14:15;1.27;;;1.10;;
65471;SDS011;52068;50.710;14.492;2023-10-08T05:17:03;1.58;;;0.93;;
65471;SDS011;52068;50.710;14.492;2023-10-08T05:19:47;0.80;;;0.80;;
65471;SDS011;52068;50.710;14.492;2023-10-08T05:22:23;6.18;;;1.08;;
65471;SDS011;52068;50.710;14.492;2023-10-08T05:24:54;1.98;;;1.20;;
65471;SDS011;52068;50.710;14.492;2023-10-08T05:27:51;1.50;;;0.90;;
65471;SDS011;52068;50.710;14.492;2023-10-08T05:30:18;1.92;;;1.10;;
65471;SDS011;52068;50.710;14.492;2023-10-08T05:32:57;1.95;;;1.00;;
65471;SDS011;52068;50.710;14.492;2023-10-08T05:35:48;2.80;;;0.90;;
65471;SDS011;52068;50.710;14.492;2023-10-08T05:38:15;3.55;;;1.23;;
65471;SDS011;52068;50.710;14.492;2023-10-08T05:40:48;1.20;;;0.80;;
65471;SDS011;52068;50.710;14.492;2023-10-08T05:43:23;0.90;;;0.90;;
65471;SDS011;52068;50.710;14.492;2023-10-08T05:46:07;1.33;;;1.00;;
65471;SDS011;52068;50.710;14.492;2023-10-08T05:48:46;1.00;;;0.90;;
65471;SDS011;52068;50.710;14.492;2023-10-08T05:51:26;1.80;;;1.20;;
65471;SDS011;52068;50.710;14.492;2023-10-08T05:54:31;3.53;;;1.17;;
65471;SDS011;52068;50.710;14.492;2023-10-08T05:57:02;6.65;;;0.93;;
65471;SDS011;52068;50.710;14.492;2023-10-08T05:59:44;8.02;;;1.25;;
65471;SDS011;52068;50.710;14.492;2023-10-08T06:04:53;1.00;;;0.80;;
65471;SDS011;52068;50.710;14.492;2023-10-08T06:07:43;3.67;;;1.13;;
65471;SDS011;52068;50.710;14.492;2023-10-08T06:10:19;5.85;;;1.10;;
65471;SDS011;52068;50.710;14.492;2023-10-08T06:15:48;4.93;;;1.00;;
65471;SDS011;52068;50.710;14.492;2023-10-08T06:18:21;2.30;;;1.13;;
65471;SDS011;52068;50.710;14.492;2023-10-08T06:20:56;1.52;;;1.10;;
65471;SDS011;52068;50.710;14.492;2023-10-08T06:23:23;1.80;;;1.08;;
65471;SDS011;52068;50.710;14.492;2023-10-08T06:25:50;4.32;;;1.20;;
65471;SDS011;52068;50.710;14.492;2023-10-08T06:28:24;7.43;;;0.80;;
65471;SDS011;52068;50.710;14.492;2023-10-08T06:30:51;1.95;;;1.20;;
65471;SDS011;52068;50.710;14.492;2023-10-08T06:33:18;3.60;;;1.40;;
65471;SDS011;52068;50.710;14.492;2023-10-08T06:35:50;2.75;;;1.30;;
65471;SDS011;52068;50.710;14.492;2023-10-08T06:38:30;3.10;;;1.13;;
65471;SDS011;52068;50.710;14.492;2023-10-08T06:40:59;2.83;;;1.17;;
65471;SDS011;52068;50.710;14.492;2023-10-08T06:43:26;2.35;;;1.48;;
65471;SDS011;52068;50.710;14.492;2023-10-08T06:45:52;4.75;;;1.70;;
65471;SDS011;52068;50.710;14.492;2023-10-08T06:48:18;4.43;;;1.40;;
65471;SDS011;52068;50.710;14.492;2023-10-08T06:50:49;2.85;;;1.58;;
65471;SDS011;52068;50.710;14.492;2023-10-08T06:53:16;3.00;;;1.30;;
65471;SDS011;52068;50.710;14.492;2023-10-08T06:55:43;4.10;;;1.52;;
65471;SDS011;52068;50.710;14.492;2023-10-08T06:58:10;5.93;;;1.45;;
65471;SDS011;52068;50.710;14.492;2023-10-08T07:00:39;2.97;;;1.63;;
65471;SDS011;52068;50.710;14.492;2023-10-08T07:03:06;3.90;;;1.98;;
65471;SDS011;52068;50.710;14.492;2023-10-08T07:05:34;5.00;;;1.90;;
65471;SDS011;52068;50.710;14.492;2023-10-08T07:08:06;5.68;;;2.10;;
65471;SDS011;52068;50.710;14.492;2023-10-08T07:10:32;3.55;;;1.85;;
65471;SDS011;52068;50.710;14.492;2023-10-08T07:13:03;6.50;;;1.35;;
65471;SDS011;52068;50.710;14.492;2023-10-08T07:15:32;5.40;;;1.88;;
65471;SDS011;52068;50.710;14.492;2023-10-08T07:17:57;6.18;;;1.95;;
65471;SDS011;52068;50.710;14.492;2023-10-08T07:20:33;3.85;;;1.60;;
65471;SDS011;52068;50.710;14.492;2023-10-08T07:23:03;2.70;;;1.45;;
65471;SDS011;52068;50.710;14.492;2023-10-08T07:25:34;2.03;;;1.52;;
65471;SDS011;52068;50.710;14.492;2023-10-08T07:28:03;3.78;;;1.60;;
65471;SDS011;52068;50.710;14.492;2023-10-08T07:30:40;7.20;;;2.58;;
65471;SDS011;52068;50.710;14.492;2023-10-08T07:33:12;7.07;;;1.60;;
65471;SDS011;52068;50.710;14.492;2023-10-08T07:35:43;3.45;;;1.70;;
65471;SDS011;52068;50.710;14.492;2023-10-08T07:38:17;3.38;;;1.67;;
65471;SDS011;52068;50.710;14.492;2023-10-08T07:40:42;5.78;;;1.75;;
65471;SDS011;52068;50.710;14.492;2023-10-08T07:43:09;4.65;;;1.60;;
65471;SDS011;52068;50.710;14.492;2023-10-08T07:45:35;5.63;;;1.58;;
65471;SDS011;52068;50.710;14.492;2023-10-08T07:48:01;4.88;;;1.60;;
65471;SDS011;52068;50.710;14.492;2023-10-08T07:50:31;5.07;;;1.63;;
65471;SDS011;52068;50.710;14.492;2023-10-08T07:52:56;2.63;;;1.40;;
65471;SDS011;52068;50.710;14.492;2023-10-08T07:55:22;4.65;;;1.75;;
65471;SDS011;52068;50.710;14.492;2023-10-08T07:57:48;4.07;;;1.60;;
65471;SDS011;52068;50.710;14.492;2023-10-08T08:00:14;5.68;;;1.90;;
65471;SDS011;52068;50.710;14.492;2023-10-08T08:02:44;3.28;;;1.55;;
65471;SDS011;52068;50.710;14.492;2023-10-08T08:05:09;5.68;;;1.60;;
65471;SDS011;52068;50.710;14.492;2023-10-08T08:07:35;3.75;;;1.35;;
65471;SDS011;52068;50.710;14.492;2023-10-08T08:10:02;2.85;;;1.50;;
65471;SDS011;52068;50.710;14.492;2023-10-08T08:12:32;2.90;;;1.45;;
65471;SDS011;52068;50.710;14.492;2023-10-08T08:14:58;4.82;;;1.23;;
65471;SDS011;52068;50.710;14.492;2023-10-08T08:17:24;6.15;;;1.60;;
65471;SDS011;52068;50.710;14.492;2023-10-08T08:19:50;7.28;;;1.67;;
65471;SDS011;52068;50.710;14.492;2023-10-08T08:22:17;4.32;;;2.00;;
65471;SDS011;52068;50.710;14.492;2023-10-08T08:24:49;3.30;;;1.33;;
65471;SDS011;52068;50.710;14.492;2023-10-08T08:27:21;3.25;;;1.63;;
65471;SDS011;52068;50.710;14.492;2023-10-08T08:29:51;5.10;;;1.80;;
65471;SDS011;52068;50.710;14.492;2023-10-08T08:32:20;3.65;;;1.65;;
65471;SDS011;52068;50.710;14.492;2023-10-08T08:34:46;3.63;;;1.35;;
65471;SDS011;52068;50.710;14.492;2023-10-08T08:37:15;3.05;;;1.38;;
65471;SDS011;52068;50.710;14.492;2023-10-08T08:39:41;3.53;;;1.40;;
65471;SDS011;52068;50.710;14.492;2023-10-08T08:42:07;5.47;;;1.88;;
65471;SDS011;52068;50.710;14.492;2023-10-08T08:44:36;7.20;;;1.90;;
65471;SDS011;52068;50.710;14.492;2023-10-08T08:47:09;4.68;;;1.73;;
65471;SDS011;52068;50.710;14.492;2023-10-08T08:49:39;4.93;;;1.80;;
65471;SDS011;52068;50.710;14.492;2023-10-08T08:52:07;4.53;;;2.03;;
65471;SDS011;52068;50.710;14.492;2023-10-08T08:54:32;6.00;;;2.28;;
65471;SDS011;52068;50.710;14.492;2023-10-08T08:56:58;14.05;;;3.40;;
65471;SDS011;52068;50.710;14.492;2023-10-08T08:59:27;20.05;;;5.07;;
65471;SDS011;52068;50.710;14.492;2023-10-08T09:01:55;25.20;;;6.00;;
65471;SDS011;52068;50.710;14.492;2023-10-08T09:04:31;29.08;;;8.43;;
65471;SDS011;52068;50.710;14.492;2023-10-08T09:07:00;36.92;;;9.35;;
65471;SDS011;52068;50.710;14.492;2023-10-08T09:09:32;49.88;;;12.68;;
65471;SDS011;52068;50.710;14.492;2023-10-08T09:11:59;46.25;;;12.85;;
65471;SDS011;52068;50.710;14.492;2023-10-08T09:14:25;53.63;;;14.63;;
65471;SDS011;52068;50.710;14.492;2023-10-08T09:16:52;62.25;;;15.98;;
65471;SDS011;52068;50.710;14.492;2023-10-08T09:19:19;66.47;;;16.48;;
65471;SDS011;52068;50.710;14.492;2023-10-08T09:22:06;60.25;;;18.35;;
65471;SDS011;52068;50.710;14.492;2023-10-08T09:24:33;79.45;;;19.35;;
65471;SDS011;52068;50.710;14.492;2023-10-08T09:27:01;69.35;;;19.65;;
65471;SDS011;52068;50.710;14.492;2023-10-08T09:29:39;90.15;;;21.30;;
65471;SDS011;52068;50.710;14.492;2023-10-08T09:32:09;69.53;;;21.05;;
65471;SDS011;52068;50.710;14.492;2023-10-08T09:34:35;76.53;;;20.35;;
65471;SDS011;52068;50.710;14.492;2023-10-08T09:37:01;70.30;;;20.33;;
65471;SDS011;52068;50.710;14.492;2023-10-08T09:39:28;68.00;;;19.02;;
65471;SDS011;52068;50.710;14.492;2023-10-08T09:41:58;78.53;;;19.75;;
65471;SDS011;52068;50.710;14.492;2023-10-08T09:44:25;82.38;;;21.02;;
65471;SDS011;52068;50.710;14.492;2023-10-08T09:46:55;80.65;;;20.85;;
65471;SDS011;52068;50.710;14.492;2023-10-08T09:49:31;71.75;;;18.90;;
65471;SDS011;52068;50.710;14.492;2023-10-08T09:52:01;64.05;;;18.20;;
65471;SDS011;52068;50.710;14.492;2023-10-08T09:56:58;71.30;;;18.70;;
65471;SDS011;52068;50.710;14.492;2023-10-08T09:59:25;68.03;;;16.95;;
65471;SDS011;52068;50.710;14.492;2023-10-08T10:01:53;56.33;;;16.85;;
65471;SDS011;52068;50.710;14.492;2023-10-08T10:04:24;57.88;;;17.35;;
65471;SDS011;52068;50.710;14.492;2023-10-08T10:06:50;65.63;;;16.60;;
65471;SDS011;52068;50.710;14.492;2023-10-08T10:09:22;56.67;;;17.08;;
65471;SDS011;52068;50.710;14.492;2023-10-08T10:11:49;58.17;;;16.45;;
65471;SDS011;52068;50.710;14.492;2023-10-08T10:14:15;53.78;;;15.55;;
65471;SDS011;52068;50.710;14.492;2023-10-08T10:16:42;52.00;;;15.32;;
65471;SDS011;52068;50.710;14.492;2023-10-08T10:19:16;46.95;;;14.13;;
65471;SDS011;52068;50.710;14.492;2023-10-08T10:21:45;54.55;;;15.40;;
65471;SDS011;52068;50.710;14.492;2023-10-08T10:24:22;48.60;;;14.68;;
65471;SDS011;52068;50.710;14.492;2023-10-08T10:27:11;49.15;;;13.32;;
65471;SDS011;52068;50.710;14.492;2023-10-08T10:29:39;43.47;;;12.13;;
65471;SDS011;52068;50.710;14.492;2023-10-08T10:32:08;44.42;;;12.18;;
65471;SDS011;52068;50.710;14.492;2023-10-08T10:34:37;45.58;;;12.65;;
65471;SDS011;52068;50.710;14.492;2023-10-08T10:37:03;35.50;;;11.95;;
65471;SDS011;52068;50.710;14.492;2023-10-08T10:39:56;41.25;;;11.98;;
65471;SDS011;52068;50.710;14.492;2023-10-08T10:42:25;42.42;;;12.25;;
65471;SDS011;52068;50.710;14.492;2023-10-08T10:44:53;38.10;;;11.50;;
65471;SDS011;52068;50.710;14.492;2023-10-08T10:47:20;43.50;;;11.60;;
65471;SDS011;52068;50.710;14.492;2023-10-08T10:49:47;37.47;;;11.32;;
65471;SDS011;52068;50.710;14.492;2023-10-08T10:52:16;38.60;;;10.75;;
65471;SDS011;52068;50.710;14.492;2023-10-08T10:55:05;34.17;;;10.32;;
65471;SDS011;52068;50.710;14.492;2023-10-08T10:57:52;29.42;;;9.73;;
65471;SDS011;52068;50.710;14.492;2023-10-08T11:00:25;33.38;;;8.52;;
65471;SDS011;52068;50.710;14.492;2023-10-08T11:02:57;28.73;;;9.07;;
65471;SDS011;52068;50.710;14.492;2023-10-08T11:05:31;26.98;;;8.02;;
65471;SDS011;52068;50.710;14.492;2023-10-08T11:08:02;25.95;;;8.52;;
65471;SDS011;52068;50.710;14.492;2023-10-08T11:10:33;27.92;;;8.85;;
65471;SDS011;52068;50.710;14.492;2023-10-08T11:13:06;24.30;;;8.15;;
65471;SDS011;52068;50.710;14.492;2023-10-08T11:15:39;27.80;;;7.93;;
65471;SDS011;52068;50.710;14.492;2023-10-08T11:18:12;25.45;;;8.25;;
65471;SDS011;52068;50.710;14.492;2023-10-08T11:20:43;26.63;;;8.57;;
65471;SDS011;52068;50.710;14.492;2023-10-08T11:23:35;22.55;;;7.38;;
65471;SDS011;52068;50.710;14.492;2023-10-08T11:26:05;23.17;;;8.27;;
65471;SDS011;52068;50.710;14.492;2023-10-08T11:28:31;24.67;;;8.13;;
65471;SDS011;52068;50.710;14.492;2023-10-08T11:31:04;24.35;;;7.35;;
65471;SDS011;52068;50.710;14.492;2023-10-08T11:33:37;26.38;;;7.85;;
65471;SDS011;52068;50.710;14.492;2023-10-08T11:36:04;20.77;;;7.25;;
65471;SDS011;52068;50.710;14.492;2023-10-08T11:38:43;22.98;;;7.95;;
65471;SDS011;52068;50.710;14.492;2023-10-08T11:41:13;24.55;;;8.07;;
65471;SDS011;52068;50.710;14.492;2023-10-08T11:43:49;24.23;;;8.30;;
65471;SDS011;52068;50.710;14.492;2023-10-08T11:46:22;24.98;;;7.43;;
65471;SDS011;52068;50.710;14.492;2023-10-08T11:48:50;28.30;;;7.47;;
65471;SDS011;52068;50.710;14.492;2023-10-08T11:51:16;21.85;;;7.38;;
65471;SDS011;52068;50.710;14.492;2023-10-08T11:53:42;20.30;;;7.05;;
65471;SDS011;52068;50.710;14.492;2023-10-08T11:56:09;25.85;;;7.85;;
65471;SDS011;52068;50.710;14.492;2023-10-08T11:58:38;20.50;;;6.85;;
65471;SDS011;52068;50.710;14.492;2023-10-08T12:01:05;19.35;;;6.03;;
65471;SDS011;52068;50.710;14.492;2023-10-08T12:03:31;19.23;;;6.03;;
65471;SDS011;52068;50.710;14.492;2023-10-08T12:05:56;21.38;;;6.72;;
65471;SDS011;52068;50.710;14.492;2023-10-08T12:08:25;18.85;;;6.72;;
65471;SDS011;52068;50.710;14.492;2023-10-08T12:10:54;17.17;;;6.45;;
65471;SDS011;52068;50.710;14.492;2023-10-08T12:13:19;28.15;;;7.45;;
65471;SDS011;52068;50.710;14.492;2023-10-08T12:15:50;16.52;;;5.75;;
65471;SDS011;52068;50.710;14.492;2023-10-08T12:18:30;20.60;;;6.07;;
65471;SDS011;52068;50.710;14.492;2023-10-08T12:20:59;22.85;;;5.65;;
65471;SDS011;52068;50.710;14.492;2023-10-08T12:23:26;13.68;;;4.93;;
65471;SDS011;52068;50.710;14.492;2023-10-08T12:25:55;15.93;;;5.28;;
65471;SDS011;52068;50.710;14.492;2023-10-08T12:28:21;13.82;;;4.22;;
65471;SDS011;52068;50.710;14.492;2023-10-08T12:30:48;24.58;;;4.45;;
65471;SDS011;52068;50.710;14.492;2023-10-08T12:33:17;9.13;;;3.83;;
65471;SDS011;52068;50.710;14.492;2023-10-08T12:35:44;8.55;;;3.85;;
65471;SDS011;52068;50.710;14.492;2023-10-08T12:38:12;11.77;;;4.32;;
65471;SDS011;52068;50.710;14.492;2023-10-08T12:40:39;10.05;;;3.90;;
65471;SDS011;52068;50.710;14.492;2023-10-08T12:43:12;14.27;;;3.92;;
65471;SDS011;52068;50.710;14.492;2023-10-08T12:45:38;13.07;;;3.83;;
65471;SDS011;52068;50.710;14.492;2023-10-08T12:48:03;14.23;;;4.18;;
65471;SDS011;52068;50.710;14.492;2023-10-08T12:50:30;10.93;;;3.25;;
65471;SDS011;52068;50.710;14.492;2023-10-08T12:53:07;9.57;;;3.47;;
65471;SDS011;52068;50.710;14.492;2023-10-08T12:55:33;11.70;;;4.00;;
65471;SDS011;52068;50.710;14.492;2023-10-08T12:58:04;10.25;;;3.22;;
65471;SDS011;52068;50.710;14.492;2023-10-08T13:00:36;8.75;;;3.33;;
65471;SDS011;52068;50.710;14.492;2023-10-08T13:03:06;10.50;;;3.90;;
65471;SDS011;52068;50.710;14.492;2023-10-08T13:05:40;10.25;;;3.88;;
65471;SDS011;52068;50.710;14.492;2023-10-08T13:08:09;7.25;;;2.70;;
65471;SDS011;52068;50.710;14.492;2023-10-08T13:10:38;8.63;;;3.33;;
65471;SDS011;52068;50.710;14.492;2023-10-08T13:13:09;9.80;;;3.58;;
65471;SDS011;52068;50.710;14.492;2023-10-08T13:15:36;7.95;;;3.08;;
65471;SDS011;52068;50.710;14.492;2023-10-08T13:18:01;8.25;;;3.42;;
65471;SDS011;52068;50.710;14.492;2023-10-08T13:20:28;9.48;;;3.70;;
65471;SDS011;52068;50.710;14.492;2023-10-08T13:22:58;8.63;;;3.30;;
65471;SDS011;52068;50.710;14.492;2023-10-08T13:25:24;9.50;;;3.08;;
65471;SDS011;52068;50.710;14.492;2023-10-08T13:27:51;12.23;;;3.85;;
65471;SDS011;52068;50.710;14.492;2023-10-08T13:30:16;8.10;;;3.30;;
65471;SDS011;52068;50.710;14.492;2023-10-08T13:32:42;12.00;;;3.22;;
65471;SDS011;52068;50.710;14.492;2023-10-08T13:35:08;6.70;;;2.67;;
65471;SDS011;52068;50.710;14.492;2023-10-08T13:37:36;5.65;;;2.58;;
65471;SDS011;52068;50.710;14.492;2023-10-08T13:40:02;7.88;;;2.80;;
65471;SDS011;52068;50.710;14.492;2023-10-08T13:42:28;7.47;;;2.75;;
65471;SDS011;52068;50.710;14.492;2023-10-08T13:44:54;5.60;;;2.47;;
65471;SDS011;52068;50.710;14.492;2023-10-08T13:47:33;8.77;;;2.60;;
65471;SDS011;52068;50.710;14.492;2023-10-08T13:49:58;7.53;;;2.92;;
65471;SDS011;52068;50.710;14.492;2023-10-08T13:52:24;8.02;;;2.80;;
65471;SDS011;52068;50.710;14.492;2023-10-08T13:54:53;8.77;;;2.95;;
65471;SDS011;52068;50.710;14.492;2023-10-08T13:57:19;12.00;;;3.13;;
65471;SDS011;52068;50.710;14.492;2023-10-08T13:59:45;12.95;;;2.50;;
65471;SDS011;52068;50.710;14.492;2023-10-08T14:02:12;11.05;;;2.92;;
65471;SDS011;52068;50.710;14.492;2023-10-08T14:04:43;11.00;;;2.92;;
65471;SDS011;52068;50.710;14.492;2023-10-08T14:07:12;6.28;;;2.40;;
65471;SDS011;52068;50.710;14.492;2023-10-08T14:09:46;11.90;;;2.60;;
65471;SDS011;52068;50.710;14.492;2023-10-08T14:12:12;8.00;;;2.88;;
65471;SDS011;52068;50.710;14.492;2023-10-08T14:14:41;9.35;;;2.40;;
65471;SDS011;52068;50.710;14.492;2023-10-08T14:17:11;7.30;;;2.72;;
65471;SDS011;52068;50.710;14.492;2023-10-08T14:20:02;10.02;;;3.00;;
65471;SDS011;52068;50.710;14.492;2023-10-08T14:22:37;7.68;;;2.70;;
65471;SDS011;52068;50.710;14.492;2023-10-08T14:25:03;8.02;;;2.72;;
65471;SDS011;52068;50.710;14.492;2023-10-08T14:27:36;8.15;;;2.60;;
65471;SDS011;52068;50.710;14.492;2023-10-08T14:30:07;6.40;;;3.08;;
65471;SDS011;52068;50.710;14.492;2023-10-08T14:32:40;8.82;;;3.00;;
65471;SDS011;52068;50.710;14.492;2023-10-08T14:35:10;7.05;;;2.80;;
65471;SDS011;52068;50.710;14.492;2023-10-08T14:37:55;4.32;;;2.30;;
65471;SDS011;52068;50.710;14.492;2023-10-08T14:40:39;9.55;;;3.20;;
65471;SDS011;52068;50.710;14.492;2023-10-08T14:43:23;9.93;;;2.88;;
65471;SDS011;52068;50.710;14.492;2023-10-08T14:45:49;6.55;;;3.00;;
65471;SDS011;52068;50.710;14.492;2023-10-08T14:48:14;8.07;;;2.83;;
65471;SDS011;52068;50.710;14.492;2023-10-08T14:50:41;7.78;;;2.38;;
65471;SDS011;52068;50.710;14.492;2023-10-08T14:53:07;5.60;;;2.72;;
65471;SDS011;52068;50.710;14.492;2023-10-08T14:55:32;6.40;;;2.60;;
65471;SDS011;52068;50.710;14.492;2023-10-08T14:58:00;8.52;;;2.85;;